Emmonak, Alaska
Current Conditions -  °F | °C
As of 2:16 PM on Friday 31 Oct 2014 (Local Time) from PAEM Reporting Station
Few Clouds Few Clouds  
Wind Chill: 10°   Ceiling: Unl
Heat Index: 25°   Visibility: 10mi
Dew Point: 14°   Wind: 22mph
Humidity: 64%   Direction: 30°NNE
Pressure: 29.28"   Gusts: 28mph
Location:  62.78°N, 164.53°W
Report Text: PAEM 312216Z 03019G24KT 10SM FEW026 M04/M10 A2928 RMK AO1
Loading
Personal Weather Stations






























Interactive Weather Map
Tropical Storm Tracking
New forecast layout! Learn more

10-Day Weather Forecast

Advertisements
Track Severe Weather on mobile